createdAt,value
2022-10-12T00:01:07.106Z,100.00
2022-10-12T00:03:35.047Z,100.00
2022-10-12T00:06:11.159Z,100.00
2022-10-12T00:08:39.355Z,100.00
2022-10-12T00:11:07.456Z,100.00
2022-10-12T00:13:34.032Z,100.00
2022-10-12T00:16:05.856Z,100.00
2022-10-12T00:18:34.034Z,100.00
2022-10-12T00:21:06.735Z,100.00
2022-10-12T00:23:35.258Z,100.00
2022-10-12T00:26:04.638Z,100.00
2022-10-12T00:28:31.747Z,100.00
2022-10-12T00:30:58.776Z,100.00
2022-10-12T00:33:25.317Z,100.00
2022-10-12T00:35:54.834Z,100.00
2022-10-12T00:38:22.535Z,100.00
2022-10-12T00:40:49.124Z,100.00
2022-10-12T00:43:29.601Z,100.00
2022-10-12T00:45:57.482Z,100.00
2022-10-12T00:48:24.547Z,100.00
2022-10-12T00:50:52.177Z,100.00
2022-10-12T00:53:22.846Z,100.00
2022-10-12T00:55:54.173Z,100.00
2022-10-12T00:58:21.716Z,100.00
2022-10-12T01:00:48.637Z,100.00
2022-10-12T01:03:20.270Z,100.00
2022-10-12T01:05:47.093Z,100.00
2022-10-12T01:08:16.118Z,100.00
2022-10-12T01:10:42.825Z,100.00
2022-10-12T01:13:09.420Z,100.00
2022-10-12T01:15:48.493Z,100.00
2022-10-12T01:18:43.558Z,100.00
2022-10-12T01:21:17.268Z,100.00
2022-10-12T01:24:14.922Z,100.00
2022-10-12T01:27:03.195Z,100.00
2022-10-12T01:30:07.328Z,100.00
2022-10-12T01:32:36.759Z,100.00
2022-10-12T01:35:28.950Z,100.00
2022-10-12T01:38:24.423Z,100.00
2022-10-12T01:40:56.871Z,100.00
2022-10-12T01:43:23.856Z,100.00
2022-10-12T01:45:50.626Z,100.00
2022-10-12T01:48:17.803Z,100.00
2022-10-12T01:50:53.829Z,100.00
2022-10-12T01:53:29.333Z,100.00
2022-10-12T01:56:21.511Z,100.00
2022-10-12T01:59:04.385Z,100.00
2022-10-12T02:01:57.829Z,100.00
2022-10-12T02:04:34.934Z,100.00
2022-10-12T02:07:07.800Z,100.00
2022-10-12T02:09:35.981Z,100.00
2022-10-12T02:12:09.101Z,100.00
2022-10-12T02:14:40.737Z,100.00
2022-10-12T02:17:11.862Z,100.00
2022-10-12T02:19:55.050Z,100.00
2022-10-12T02:22:23.547Z,100.00
2022-10-12T02:24:52.441Z,100.00
2022-10-12T02:27:21.275Z,100.00
2022-10-12T02:29:48.519Z,100.00
2022-10-12T02:32:35.627Z,100.00
2022-10-12T02:35:10.462Z,100.00
2022-10-12T02:38:20.941Z,100.00
2022-10-12T02:41:02.117Z,100.00
2022-10-12T02:43:33.058Z,100.00
2022-10-12T02:46:00.356Z,100.00
2022-10-12T02:48:29.114Z,100.00
2022-10-12T02:50:57.933Z,100.00
2022-10-12T02:53:27.771Z,100.00
2022-10-12T02:56:01.857Z,100.00
2022-10-12T02:58:28.361Z,100.00
2022-10-12T03:00:54.861Z,100.00
2022-10-12T03:03:21.414Z,100.00
2022-10-12T03:05:47.871Z,100.00
2022-10-12T03:08:14.320Z,100.00
2022-10-12T03:10:40.756Z,100.00
2022-10-12T03:13:07.166Z,100.00
2022-10-12T03:15:36.039Z,100.00
2022-10-12T03:18:02.555Z,100.00
2022-10-12T03:20:29.048Z,100.00
2022-10-12T03:22:55.914Z,100.00
2022-10-12T03:25:22.821Z,100.00
2022-10-12T03:27:49.236Z,100.00
2022-10-12T03:30:15.783Z,100.00
2022-10-12T03:32:42.318Z,100.00
2022-10-12T03:35:09.254Z,100.00
2022-10-12T03:37:35.973Z,100.00
2022-10-12T03:40:03.324Z,100.00
2022-10-12T03:42:29.832Z,100.00
2022-10-12T03:44:56.395Z,100.00
2022-10-12T03:47:22.945Z,100.00
2022-10-12T03:49:49.472Z,100.00
2022-10-12T03:52:15.996Z,100.00
2022-10-12T03:54:42.485Z,100.00
2022-10-12T03:57:08.961Z,100.00
2022-10-12T03:59:35.410Z,100.00
2022-10-12T04:02:02.513Z,100.00
2022-10-12T04:04:28.917Z,100.00
2022-10-12T04:06:55.416Z,100.00
2022-10-12T04:09:21.924Z,100.00
2022-10-12T04:11:48.421Z,100.00
2022-10-12T04:14:14.837Z,100.00
2022-10-12T04:16:41.258Z,100.00
2022-10-12T04:19:13.990Z,100.00
2022-10-12T04:21:40.992Z,100.00
2022-10-12T04:24:07.901Z,100.00
2022-10-12T04:26:34.425Z,100.00
2022-10-12T04:29:00.997Z,100.00
2022-10-12T04:31:27.585Z,100.00
2022-10-12T04:33:56.869Z,100.00
2022-10-12T04:36:24.556Z,100.00
2022-10-12T04:38:51.310Z,100.00
2022-10-12T04:41:17.857Z,100.00
2022-10-12T04:43:44.451Z,100.00
2022-10-12T04:46:11.512Z,100.00
2022-10-12T04:48:38.321Z,100.00
2022-10-12T04:51:06.167Z,100.00
2022-10-12T04:53:33.023Z,100.00
2022-10-12T04:56:03.541Z,100.00
2022-10-12T04:58:30.069Z,100.00
2022-10-12T05:00:56.907Z,100.00
2022-10-12T05:03:24.132Z,100.00
2022-10-12T05:05:51.266Z,100.00
2022-10-12T05:08:17.960Z,100.00
2022-10-12T05:10:46.168Z,100.00
2022-10-12T05:13:13.760Z,100.00
2022-10-12T05:15:42.551Z,100.00
2022-10-12T05:18:09.502Z,100.00
2022-10-12T05:20:36.216Z,100.00
2022-10-12T05:23:02.852Z,100.00
2022-10-12T05:25:29.688Z,100.00
2022-10-12T05:27:57.194Z,100.00
2022-10-12T05:30:24.585Z,100.00
2022-10-12T05:32:51.108Z,100.00
2022-10-12T05:35:17.756Z,100.00
2022-10-12T05:37:44.429Z,100.00
2022-10-12T05:40:11.563Z,100.00
2022-10-12T05:42:38.512Z,100.00
2022-10-12T05:45:06.206Z,100.00
2022-10-12T05:47:32.728Z,100.00
2022-10-12T05:49:59.261Z,100.00
2022-10-12T05:52:25.816Z,100.00
2022-10-12T05:54:52.348Z,100.00
2022-10-12T05:57:19.521Z,100.00
2022-10-12T05:59:46.326Z,100.00
2022-10-12T06:02:18.961Z,100.00
2022-10-12T06:04:45.597Z,100.00
2022-10-12T06:07:12.334Z,100.00
2022-10-12T06:09:39.039Z,100.00
2022-10-12T06:12:07.751Z,100.00
2022-10-12T06:14:34.267Z,100.00
2022-10-12T06:17:07.865Z,100.00
2022-10-12T06:19:34.442Z,100.00
2022-10-12T06:22:01.122Z,100.00
2022-10-12T06:24:27.670Z,100.00
2022-10-12T06:26:54.173Z,100.00
2022-10-12T06:29:23.353Z,100.00
2022-10-12T06:31:51.952Z,100.00
2022-10-12T06:34:18.743Z,100.00
2022-10-12T06:36:45.343Z,100.00
2022-10-12T06:39:12.014Z,100.00
2022-10-12T06:41:39.095Z,100.00
2022-10-12T06:44:05.708Z,100.00
2022-10-12T06:46:32.228Z,100.00
2022-10-12T06:48:58.715Z,100.00
2022-10-12T06:51:25.324Z,100.00
2022-10-12T06:53:55.369Z,100.00
2022-10-12T06:56:22.074Z,100.00
2022-10-12T06:58:53.971Z,100.00
2022-10-12T07:01:20.467Z,100.00
2022-10-12T07:03:46.968Z,100.00
2022-10-12T07:06:14.584Z,100.00
2022-10-12T07:08:42.070Z,100.00
2022-10-12T07:11:11.773Z,100.00
2022-10-12T07:13:38.857Z,100.00
2022-10-12T07:16:05.776Z,100.00
2022-10-12T07:18:32.588Z,100.00
2022-10-12T07:20:59.885Z,100.00
2022-10-12T07:23:27.796Z,100.00
2022-10-12T07:25:54.722Z,100.00
2022-10-12T07:28:22.211Z,100.00
2022-10-12T07:30:48.971Z,100.00
2022-10-12T07:33:16.090Z,100.00
2022-10-12T07:36:03.259Z,100.00
2022-10-12T07:38:29.815Z,100.00
2022-10-12T07:40:59.991Z,100.00
2022-10-12T07:43:27.161Z,100.00
2022-10-12T07:45:53.669Z,100.00
2022-10-12T07:48:20.879Z,100.00
2022-10-12T07:50:47.670Z,100.00
2022-10-12T07:53:14.284Z,100.00
2022-10-12T07:55:41.108Z,100.00
2022-10-12T07:58:11.893Z,100.00
2022-10-12T08:00:38.637Z,100.00
2022-10-12T08:03:05.172Z,100.00
2022-10-12T08:05:31.696Z,100.00
2022-10-12T08:08:00.246Z,100.00
2022-10-12T08:10:27.049Z,100.00
2022-10-12T08:12:53.640Z,100.00
2022-10-12T08:15:20.641Z,100.00
2022-10-12T08:17:47.336Z,100.00
2022-10-12T08:20:16.438Z,100.00
2022-10-12T08:22:43.101Z,100.00
2022-10-12T08:25:09.623Z,100.00
2022-10-12T08:27:38.454Z,100.00
2022-10-12T08:30:06.655Z,100.00
2022-10-12T08:32:33.359Z,100.00
2022-10-12T08:35:00.449Z,100.00
2022-10-12T08:37:27.066Z,100.00
2022-10-12T08:39:53.745Z,93.58
2022-10-12T08:42:55.528Z,86.38
2022-10-12T08:45:41.544Z,75.69
2022-10-12T08:48:12.257Z,73.87
2022-10-12T08:50:40.736Z,78.06
2022-10-12T08:53:26.264Z,81.75
2022-10-12T08:55:53.010Z,83.81
2022-10-12T08:58:23.232Z,74.21
2022-10-12T09:00:59.862Z,78.15
2022-10-12T09:03:40.425Z,78.22
2022-10-12T09:06:14.145Z,75.71
2022-10-12T09:09:03.055Z,83.83
2022-10-12T09:11:38.896Z,76.07
2022-10-12T09:14:06.999Z,70.44
2022-10-12T09:16:39.430Z,67.78
2022-10-12T09:19:18.969Z,71.95
2022-10-12T09:21:48.510Z,65.93
2022-10-12T09:24:41.994Z,63.64
2022-10-12T09:27:20.172Z,63.27
2022-10-12T09:29:55.339Z,61.52
2022-10-12T09:32:49.124Z,61.56
2022-10-12T09:35:16.158Z,60.67
2022-10-12T09:37:52.897Z,60.02
2022-10-12T09:40:30.486Z,62.13
2022-10-12T09:43:03.160Z,63.75
2022-10-12T09:45:35.083Z,55.00
2022-10-12T09:48:10.683Z,53.40
2022-10-12T09:50:44.692Z,57.35
2022-10-12T09:53:27.471Z,61.79
2022-10-12T09:56:28.971Z,62.29
2022-10-12T09:59:08.300Z,62.16
2022-10-12T10:01:36.260Z,69.26
2022-10-12T10:04:24.079Z,81.68
2022-10-12T10:06:51.137Z,94.67
2022-10-12T10:09:26.795Z,100.00
2022-10-12T10:11:53.588Z,100.00
2022-10-12T10:14:20.150Z,100.00
2022-10-12T10:16:51.668Z,100.00
2022-10-12T10:19:21.783Z,100.00
2022-10-12T10:21:48.418Z,100.00
2022-10-12T10:24:35.377Z,100.00
2022-10-12T10:27:04.806Z,100.00
2022-10-12T10:29:41.674Z,100.00
2022-10-12T10:32:15.750Z,100.00
2022-10-12T10:34:45.912Z,100.00
2022-10-12T10:37:23.162Z,100.00
2022-10-12T10:39:51.625Z,100.00
2022-10-12T10:42:23.340Z,100.00
2022-10-12T10:44:53.355Z,100.00
2022-10-12T10:47:20.036Z,100.00
2022-10-12T10:49:52.133Z,100.00
2022-10-12T10:52:25.857Z,100.00
2022-10-12T10:55:10.575Z,100.00
2022-10-12T10:57:41.304Z,100.00
2022-10-12T11:00:37.947Z,100.00
2022-10-12T11:03:31.296Z,100.00
2022-10-12T11:06:14.212Z,100.00
2022-10-12T11:08:43.668Z,100.00
2022-10-12T11:11:18.806Z,100.00
2022-10-12T11:13:55.748Z,100.00
2022-10-12T11:16:43.725Z,100.00
2022-10-12T11:19:34.177Z,100.00
2022-10-12T11:22:06.097Z,100.00
2022-10-12T11:24:44.041Z,100.00
2022-10-12T11:27:33.939Z,100.00
2022-10-12T11:30:11.645Z,100.00
2022-10-12T11:32:49.813Z,100.00
2022-10-12T11:35:30.375Z,100.00
2022-10-12T11:38:21.414Z,100.00
2022-10-12T11:41:31.211Z,100.00
2022-10-12T11:44:04.002Z,100.00
2022-10-12T11:46:38.592Z,100.00
2022-10-12T11:49:20.793Z,100.00
2022-10-12T11:51:50.501Z,100.00
2022-10-12T11:54:40.318Z,100.00
2022-10-12T11:57:17.695Z,100.00
2022-10-12T11:59:54.887Z,100.00
2022-10-12T12:02:38.163Z,100.00
2022-10-12T12:05:21.707Z,100.00
2022-10-12T12:11:25.231Z,100.00
2022-10-12T12:14:21.241Z,100.00
2022-10-12T12:16:49.678Z,100.00
2022-10-12T12:19:37.045Z,100.00
2022-10-12T12:22:17.044Z,100.00
2022-10-12T12:24:58.041Z,100.00
2022-10-12T12:27:32.639Z,100.00
2022-10-12T12:30:02.095Z,100.00
2022-10-12T12:32:52.271Z,100.00
2022-10-12T12:35:24.400Z,100.00
2022-10-12T12:38:20.736Z,100.00
2022-10-12T12:41:17.742Z,100.00
2022-10-12T12:43:56.415Z,100.00
2022-10-12T12:46:25.593Z,100.00
2022-10-12T12:48:52.708Z,100.00
2022-10-12T12:51:45.969Z,100.00
2022-10-12T12:54:20.631Z,100.00
2022-10-12T12:57:06.146Z,100.00
2022-10-12T13:00:06.791Z,100.00
2022-10-12T13:02:53.332Z,100.00
2022-10-12T13:06:00.049Z,100.00
2022-10-12T13:08:41.675Z,100.00
2022-10-12T13:11:45.747Z,100.00
2022-10-12T13:14:43.443Z,100.00
2022-10-12T13:17:54.330Z,100.00
2022-10-12T13:20:29.050Z,100.00
2022-10-12T13:23:02.996Z,100.00
2022-10-12T13:25:56.238Z,100.00
2022-10-12T13:28:28.797Z,100.00
2022-10-12T13:31:00.207Z,100.00
2022-10-12T13:33:39.590Z,100.00
2022-10-12T13:36:13.320Z,100.00
2022-10-12T13:38:40.535Z,100.00
2022-10-12T13:41:12.136Z,100.00
2022-10-12T13:43:46.613Z,100.00
2022-10-12T13:46:37.659Z,100.00
2022-10-12T13:49:17.677Z,100.00
2022-10-12T13:51:48.216Z,100.00
2022-10-12T13:54:27.042Z,100.00
2022-10-12T13:57:01.288Z,100.00
2022-10-12T13:59:33.459Z,100.00
2022-10-12T14:02:02.299Z,100.00
2022-10-12T14:04:35.138Z,100.00
2022-10-12T14:07:07.439Z,100.00
2022-10-12T14:09:43.533Z,100.00
2022-10-12T14:12:11.446Z,100.00
2022-10-12T14:14:42.860Z,100.00
2022-10-12T14:17:20.894Z,100.00
2022-10-12T14:19:58.895Z,100.00
2022-10-12T14:22:29.598Z,100.00
2022-10-12T14:25:08.501Z,100.00
2022-10-12T14:27:38.908Z,100.00
2022-10-12T14:30:23.400Z,100.00
2022-10-12T14:32:53.938Z,100.00
2022-10-12T14:35:26.513Z,100.00
2022-10-12T14:37:54.974Z,100.00
2022-10-12T14:40:39.207Z,100.00
2022-10-12T14:43:21.248Z,100.00
2022-10-12T14:45:47.857Z,100.00
2022-10-12T14:48:18.999Z,100.00
2022-10-12T14:50:46.483Z,100.00
2022-10-12T14:53:14.776Z,100.00
2022-10-12T14:55:42.586Z,100.00
2022-10-12T14:58:15.000Z,100.00
2022-10-12T15:00:42.547Z,100.00
2022-10-12T15:03:09.180Z,100.00
2022-10-12T15:05:35.940Z,100.00
2022-10-12T15:08:08.804Z,100.00
2022-10-12T15:10:37.021Z,100.00
2022-10-12T15:13:23.831Z,100.00
2022-10-12T15:15:52.696Z,100.00
2022-10-12T15:18:19.321Z,100.00
2022-10-12T15:20:49.378Z,100.00
2022-10-12T15:23:16.684Z,100.00
2022-10-12T15:25:56.518Z,100.00
2022-10-12T15:28:23.555Z,100.00
2022-10-12T15:33:40.500Z,100.00
2022-10-12T15:36:10.228Z,100.00
2022-10-12T15:38:37.197Z,100.00
2022-10-12T15:41:04.206Z,100.00
2022-10-12T15:43:33.684Z,100.00
2022-10-12T15:46:02.712Z,100.00
2022-10-12T15:48:30.572Z,100.00
2022-10-12T15:50:57.296Z,100.00
2022-10-12T15:53:25.720Z,100.00
2022-10-12T15:55:53.988Z,100.00
2022-10-12T15:58:20.921Z,100.00
2022-10-12T16:00:48.019Z,100.00
2022-10-12T16:03:25.886Z,100.00
2022-10-12T16:05:53.983Z,100.00
2022-10-12T16:08:20.952Z,100.00
2022-10-12T16:10:48.389Z,100.00
2022-10-12T16:13:16.364Z,100.00
2022-10-12T16:15:44.414Z,100.00
2022-10-12T16:18:11.458Z,100.00
2022-10-12T16:20:39.411Z,100.00
2022-10-12T16:23:18.953Z,100.00
2022-10-12T16:25:45.883Z,100.00
2022-10-12T16:28:12.618Z,100.00
2022-10-12T16:30:41.062Z,100.00
2022-10-12T16:33:10.642Z,100.00
2022-10-12T16:35:40.487Z,100.00
2022-10-12T16:38:09.321Z,100.00
2022-10-12T16:40:39.128Z,100.00
2022-10-12T16:43:06.150Z,100.00
2022-10-12T16:45:36.495Z,100.00
2022-10-12T16:48:03.923Z,100.00
2022-10-12T16:50:30.604Z,100.00
2022-10-12T16:52:57.956Z,100.00
2022-10-12T16:55:24.595Z,100.00
2022-10-12T16:57:51.311Z,100.00
2022-10-12T17:00:20.263Z,100.00
2022-10-12T17:02:48.027Z,100.00
2022-10-12T17:05:14.856Z,100.00
2022-10-12T17:07:41.513Z,100.00
2022-10-12T17:10:08.611Z,100.00
2022-10-12T17:12:35.880Z,100.00
2022-10-12T17:15:02.621Z,100.00
2022-10-12T17:17:29.327Z,100.00
2022-10-12T17:19:56.414Z,100.00
2022-10-12T17:22:23.041Z,100.00
2022-10-12T17:24:49.650Z,100.00
2022-10-12T17:27:16.904Z,100.00
2022-10-12T17:29:44.068Z,100.00
2022-10-12T17:36:09.414Z,100.00
2022-10-12T17:38:36.987Z,100.00
2022-10-12T17:41:05.107Z,100.00
2022-10-12T17:43:32.354Z,100.00
2022-10-12T17:46:02.184Z,100.00
2022-10-12T17:48:30.180Z,100.00
2022-10-12T17:51:02.744Z,100.00
2022-10-12T17:53:29.414Z,100.00
2022-10-12T17:56:01.130Z,100.00
2022-10-12T17:58:28.388Z,100.00
2022-10-12T18:01:03.451Z,100.00
2022-10-12T18:03:30.263Z,100.00
2022-10-12T18:06:03.444Z,100.00
2022-10-12T18:08:30.366Z,100.00
2022-10-12T18:11:00.777Z,100.00
2022-10-12T18:13:28.875Z,100.00
2022-10-12T18:15:55.987Z,100.00
2022-10-12T18:18:22.666Z,100.00
2022-10-12T18:20:49.649Z,100.00
2022-10-12T18:23:16.319Z,100.00
2022-10-12T18:25:43.703Z,100.00
2022-10-12T18:28:11.735Z,100.00
2022-10-12T18:30:45.590Z,100.00
2022-10-12T18:33:12.238Z,100.00
2022-10-12T18:35:38.721Z,100.00
2022-10-12T18:38:05.316Z,100.00
2022-10-12T18:40:36.567Z,100.00
2022-10-12T18:43:06.012Z,100.00
2022-10-12T18:45:35.185Z,100.00
2022-10-12T18:48:06.383Z,100.00
2022-10-12T18:50:35.337Z,100.00
2022-10-12T18:53:01.921Z,100.00
2022-10-12T18:55:28.524Z,100.00
2022-10-12T18:57:55.255Z,100.00
2022-10-12T19:00:26.421Z,100.00
2022-10-12T19:02:52.954Z,100.00
2022-10-12T19:05:19.552Z,100.00
2022-10-12T19:07:45.993Z,100.00
2022-10-12T19:10:12.637Z,100.00
2022-10-12T19:12:43.375Z,100.00
2022-10-12T19:15:12.125Z,100.00
2022-10-12T19:17:38.532Z,100.00
2022-10-12T19:20:05.479Z,100.00
2022-10-12T19:22:31.937Z,100.00
2022-10-12T19:24:59.919Z,100.00
2022-10-12T19:27:26.442Z,100.00
2022-10-12T19:29:52.978Z,100.00
2022-10-12T19:32:19.861Z,100.00
2022-10-12T19:34:50.025Z,100.00
2022-10-12T19:37:16.548Z,100.00
2022-10-12T19:39:45.009Z,100.00
2022-10-12T19:42:11.440Z,100.00
2022-10-12T19:44:38.075Z,100.00
2022-10-12T19:47:04.899Z,100.00
2022-10-12T19:49:36.433Z,100.00
2022-10-12T19:52:03.872Z,100.00
2022-10-12T19:54:34.078Z,100.00
2022-10-12T19:57:05.666Z,100.00
2022-10-12T19:59:32.143Z,100.00
2022-10-12T20:02:01.976Z,100.00
2022-10-12T20:04:30.062Z,100.00
2022-10-12T20:06:56.718Z,100.00
2022-10-12T20:09:23.243Z,100.00
2022-10-12T20:11:50.044Z,100.00
2022-10-12T20:14:18.877Z,100.00
2022-10-12T20:16:45.523Z,100.00
2022-10-12T20:19:12.216Z,100.00
2022-10-12T20:21:38.860Z,100.00
2022-10-12T20:24:11.949Z,100.00
2022-10-12T20:26:38.800Z,100.00
2022-10-12T20:29:05.351Z,100.00
2022-10-12T20:31:31.942Z,100.00
2022-10-12T20:33:58.607Z,100.00
2022-10-12T20:36:28.438Z,100.00
2022-10-12T20:38:55.442Z,100.00
2022-10-12T20:41:23.175Z,100.00
2022-10-12T20:43:49.654Z,100.00
2022-10-12T20:46:18.461Z,100.00
2022-10-12T20:48:45.688Z,100.00
2022-10-12T20:51:28.908Z,100.00
2022-10-12T20:53:59.048Z,100.00
2022-10-12T20:56:27.348Z,100.00
2022-10-12T20:58:55.359Z,100.00
2022-10-12T21:01:23.000Z,100.00
2022-10-12T21:03:49.705Z,100.00
2022-10-12T21:06:17.357Z,100.00
2022-10-12T21:08:43.811Z,100.00
2022-10-12T21:11:11.037Z,100.00
2022-10-12T21:13:42.282Z,100.00
2022-10-12T21:16:13.369Z,100.00
2022-10-12T21:18:41.320Z,100.00
2022-10-12T21:21:12.838Z,100.00
2022-10-12T21:23:41.210Z,100.00
2022-10-12T21:26:12.580Z,100.00
2022-10-12T21:28:39.417Z,100.00
2022-10-12T21:31:06.170Z,100.00
2022-10-12T21:33:35.065Z,100.00
2022-10-12T21:36:07.849Z,100.00
2022-10-12T21:38:34.625Z,100.00
2022-10-12T21:41:01.192Z,100.00
2022-10-12T21:43:27.636Z,100.00
2022-10-12T21:45:56.274Z,100.00
2022-10-12T21:48:22.785Z,100.00
2022-10-12T21:50:49.301Z,100.00
2022-10-12T21:53:15.957Z,100.00
2022-10-12T21:55:42.383Z,100.00
2022-10-12T21:58:08.847Z,100.00
2022-10-12T22:00:35.339Z,100.00
2022-10-12T22:03:02.032Z,100.00
2022-10-12T22:05:28.578Z,100.00
2022-10-12T22:07:57.998Z,100.00
2022-10-12T22:10:24.706Z,100.00
2022-10-12T22:12:51.271Z,100.00
2022-10-12T22:15:17.822Z,100.00
2022-10-12T22:17:44.253Z,100.00
2022-10-12T22:20:11.328Z,100.00
2022-10-12T22:22:38.154Z,100.00
2022-10-12T22:25:05.080Z,100.00
2022-10-12T22:27:31.735Z,100.00
2022-10-12T22:30:01.612Z,100.00
2022-10-12T22:32:28.145Z,100.00
2022-10-12T22:34:54.771Z,100.00
2022-10-12T22:37:22.082Z,100.00
2022-10-12T22:39:48.635Z,100.00
2022-10-12T22:42:15.140Z,100.00
2022-10-12T22:44:41.600Z,100.00
2022-10-12T22:47:08.082Z,100.00
2022-10-12T22:49:34.618Z,100.00
2022-10-12T22:52:01.116Z,100.00
2022-10-12T22:54:27.707Z,100.00
2022-10-12T22:56:54.383Z,100.00
2022-10-12T22:59:20.944Z,100.00
2022-10-12T23:01:47.570Z,100.00
2022-10-12T23:04:14.146Z,100.00
2022-10-12T23:06:40.655Z,100.00
2022-10-12T23:09:07.298Z,100.00
2022-10-12T23:11:33.882Z,100.00
2022-10-12T23:14:00.845Z,100.00
2022-10-12T23:16:30.004Z,100.00
2022-10-12T23:18:59.706Z,100.00
2022-10-12T23:21:27.914Z,100.00
2022-10-12T23:23:54.558Z,100.00
2022-10-12T23:26:23.268Z,100.00
2022-10-12T23:28:50.757Z,100.00
2022-10-12T23:31:22.232Z,100.00
2022-10-12T23:33:48.895Z,100.00
2022-10-12T23:36:17.420Z,100.00
2022-10-12T23:38:44.724Z,100.00
2022-10-12T23:41:12.294Z,100.00
2022-10-12T23:43:38.889Z,100.00
2022-10-12T23:46:05.752Z,100.00
2022-10-12T23:48:33.264Z,100.00
2022-10-12T23:51:00.369Z,100.00
2022-10-12T23:53:27.323Z,100.00
2022-10-12T23:55:54.428Z,100.00
2022-10-12T23:58:21.174Z,100.00
